Time;durP1;ratioP1;P1;durP2;ratioP2;P2;SDS_P1;SDS_P2;PMS_P1;PMS_P2;Temp;Humidity;BMP_temperature;BMP_pressure;BME280_temperature;BME280_humidity;BME280_pressure;Samples;Min_cycle;Max_cycle;Signal;HPM_P1;HPM_P2
2021/05/09 00:01:13;;;;;;;16.30;7.23;;;10.40;99.90;;;;;;6195502;23;20776;-85
2021/05/09 00:07:26;;;;;;;13.87;11.10;;;10.10;99.90;;;;;;6113282;23;20404;-89
2021/05/09 00:10:33;;;;;;;13.43;10.73;;;9.80;99.90;;;;;;6184961;23;20419;-88
2021/05/09 00:16:37;;;;;;;28.17;19.30;;;9.40;99.90;;;;;;6032560;23;20501;-90
2021/05/09 00:19:13;;;;;;;23.23;21.53;;;9.30;99.90;;;;;;6195230;23;20420;-85
2021/05/09 00:31:18;;;;;;;46.83;44.03;;;9.10;99.90;;;;;;6192213;23;20464;-86
2021/05/09 00:33:52;;;;;;;54.30;51.53;;;8.90;99.90;;;;;;6194131;23;20412;-87
2021/05/09 00:37:04;;;;;;;;;;;;;;;;;;;;;
2021/05/09 00:39:48;;;;;;;;;;;;;;;;;;;;;
2021/05/09 00:45:27;;;;;;;80.67;76.90;;;8.70;99.90;;;;;;6054299;23;20436;-86
2021/05/09 00:48:29;;;;;;;78.20;74.20;;;8.50;99.90;;;;;;6184301;23;20456;-87
2021/05/09 00:51:00;;;;;;;85.13;81.00;;;8.30;99.90;;;;;;6149099;23;20451;-88
2021/05/09 00:56:23;;;;;;;;;;;;;;;;;;;;;
2021/05/09 01:01:55;;;;;;;107.00;102.10;;;8.30;99.90;;;;;;6179747;23;20924;-87
2021/05/09 01:05:02;;;;;;;;;;;;;;;;;;;;;
2021/05/09 01:08:03;;;;;;;115.40;110.10;;;8.40;99.90;;;;;;6078049;23;20482;-85
2021/05/09 01:10:35;;;;;;;115.87;110.37;;;8.50;99.90;;;;;;6016810;23;20436;-87
2021/05/09 01:13:26;;;;;;;;;;;;;;;;;;;;;
2021/05/09 01:19:16;;;;;;;154.83;147.87;;;8.50;99.90;;;;;;6035037;23;20417;-88
2021/05/09 01:25:24;;;;;;;148.07;141.67;;;8.60;99.90;;;;;;6003513;23;20424;-88
2021/05/09 01:28:03;;;;;;;;;;;;;;;;;;;;;
2021/05/09 01:30:54;;;;;;;164.83;157.43;;;8.50;99.90;;;;;;6105152;23;20910;-89
2021/05/09 01:40:01;;;;;;;173.17;165.87;;;8.90;99.90;;;;;;6110780;23;20745;-87
2021/05/09 01:43:00;;;;;;;;;;;;;;;;;;;;;
2021/05/09 01:48:50;;;;;;;155.60;148.97;;;8.80;99.90;;;;;;5999428;23;20410;-85
2021/05/09 01:51:29;;;;;;;160.43;153.33;;;8.80;99.90;;;;;;6192465;23;20418;-87
2021/05/09 01:54:34;;;;;;;;;;;;;;;;;;;;;
2021/05/09 01:57:06;;;;;;;147.53;141.07;;;8.70;99.90;;;;;;6125784;23;20911;-89
2021/05/09 01:59:53;;;;;;;148.20;141.70;;;8.70;99.90;;;;;;6186641;23;20408;-86
2021/05/09 02:06:14;;;;;;;134.57;128.73;;;8.70;99.90;;;;;;6100473;23;20420;-90
2021/05/09 02:08:40;;;;;;;135.90;130.03;;;8.60;99.90;;;;;;6185474;23;20420;-86
2021/05/09 02:14:50;;;;;;;126.30;120.77;;;8.60;99.90;;;;;;6045447;23;20487;-86
2021/05/09 02:33:29;;;;;;;98.90;94.33;;;8.30;99.90;;;;;;5979180;24;20430;-87
2021/05/09 02:36:43;;;;;;;;;;;;;;;;;;;;;
2021/05/09 02:58:19;;;;;;;90.43;86.33;;;7.80;99.90;;;;;;5918010;24;20474;-87
2021/05/09 03:00:47;;;;;;;88.07;83.97;;;7.70;99.90;;;;;;5941283;23;20453;-88
2021/05/09 03:03:40;;;;;;;;;;;;;;;;;;;;;
2021/05/09 03:06:40;;;;;;;98.10;93.63;;;7.50;99.90;;;;;;6072685;23;20480;-92
2021/05/09 03:16:11;;;;;;;113.93;108.63;;;7.70;99.90;;;;;;6074467;23;20448;-89
2021/05/09 03:18:37;;;;;;;137.30;131.03;;;7.90;99.90;;;;;;6154020;23;20894;-83
2021/05/09 03:25:18;;;;;;;;;;;;;;;;;;;;;
2021/05/09 03:28:12;;;;;;;177.00;168.63;;;8.10;99.90;;;;;;5950452;23;20425;-86
2021/05/09 03:38:07;;;;;;;;;;;;;;;;;;;;;
2021/05/09 03:40:55;;;;;;;176.90;169.13;;;8.40;99.90;;;;;;5961519;24;20464;-87
2021/05/09 03:50:40;;;;;;;168.07;160.63;;;8.90;99.90;;;;;;5954402;23;20427;-86
2021/05/09 03:53:19;;;;;;;165.10;157.97;;;8.90;99.90;;;;;;5896297;24;20896;-89
2021/05/09 03:56:17;;;;;;;162.57;155.87;;;8.90;99.90;;;;;;6103565;23;20777;-87
2021/05/09 04:01:51;;;;;;;140.10;134.07;;;8.90;99.90;;;;;;6088657;23;20454;-87
2021/05/09 04:08:00;;;;;;;137.67;131.53;;;8.90;99.90;;;;;;6029040;23;20491;-88
2021/05/09 04:11:09;;;;;;;131.67;125.90;;;8.80;99.90;;;;;;6165700;23;20461;-88
2021/05/09 04:17:04;;;;;;;;;;;;;;;;;;;;;
2021/05/09 04:19:40;;;;;;;114.30;109.33;;;8.70;99.90;;;;;;6099793;23;20423;-85
2021/05/09 04:22:22;;;;;;;;;;;;;;;;;;;;;
2021/05/09 04:24:58;;;;;;;138.07;132.13;;;8.80;99.90;;;;;;6165736;23;20393;-87
2021/05/09 04:27:26;;;;;;;136.57;130.70;;;9.00;99.90;;;;;;6165701;23;20440;-87
2021/05/09 04:30:01;;;;;;;152.90;146.53;;;9.20;99.90;;;;;;6155373;23;20452;-88
2021/05/09 04:32:52;;;;;;;136.13;130.03;;;9.30;99.90;;;;;;6164172;23;20491;-86
2021/05/09 04:35:19;;;;;;;121.13;115.57;;;9.40;99.90;;;;;;6164997;23;20445;-89
2021/05/09 04:37:49;;;;;;;116.33;111.13;;;9.40;99.90;;;;;;6165431;23;20418;-89
2021/05/09 04:40:16;;;;;;;104.03;99.67;;;9.50;99.90;;;;;;6156027;23;20816;-83
2021/05/09 04:45:44;;;;;;;98.17;93.60;;;9.60;99.90;;;;;;6144995;23;20483;-86
2021/05/09 04:48:47;;;;;;;95.07;90.67;;;9.80;99.90;;;;;;5978536;24;20427;-88
2021/05/09 04:51:16;;;;;;;80.30;76.73;;;9.90;99.90;;;;;;6076826;23;20446;-86
2021/05/09 04:57:12;;;;;;;66.50;63.20;;;10.10;99.90;;;;;;6157313;23;20441;-87
2021/05/09 05:00:37;;;;;;;52.83;50.13;;;10.30;99.90;;;;;;6168071;23;20405;-86
2021/05/09 05:09:39;;;;;;;31.40;29.30;;;10.50;99.90;;;;;;6071675;23;20426;-84
2021/05/09 05:12:35;;;;;;;28.00;26.00;;;10.50;99.90;;;;;;6166769;23;20420;-88
2021/05/09 05:15:20;;;;;;;25.60;23.73;;;10.60;99.90;;;;;;6167278;23;20433;-90
2021/05/09 05:18:33;;;;;;;20.23;18.43;;;10.70;99.90;;;;;;6166009;23;20412;-89
2021/05/09 05:21:09;;;;;;;15.53;13.93;;;10.70;99.90;;;;;;6142530;23;20413;-91
2021/05/09 05:23:54;;;;;;;14.50;11.63;;;10.80;99.90;;;;;;6167238;23;20774;-88
2021/05/09 05:27:00;;;;;;;13.73;7.00;;;10.90;99.90;;;;;;6167319;23;20424;-88
2021/05/09 05:33:43;;;;;;;;;;;;;;;;;;;;;
2021/05/09 05:39:48;;;;;;;;;;;;;;;;;;;;;
2021/05/09 05:42:37;;;;;;;14.67;2.90;;;12.30;99.90;;;;;;6037837;23;20409;-89
2021/05/09 05:45:24;;;;;;;16.00;2.90;;;12.90;99.90;;;;;;5987731;23;21001;-90
2021/05/09 05:48:08;;;;;;;17.87;3.10;;;13.30;99.90;;;;;;6115779;23;20414;-87
2021/05/09 05:51:16;;;;;;;;;;;;;;;;;;;;;
2021/05/09 05:54:27;;;;;;;23.50;3.20;;;14.20;91.50;;;;;;6123707;23;20422;-87
2021/05/09 05:57:48;;;;;;;20.80;2.57;;;14.50;82.70;;;;;;6103460;23;20449;-87
2021/05/09 06:51:29;;;;;;;35.17;2.20;;;17.90;25.00;;;;;;5851001;24;20427;-89
2021/05/09 07:35:04;;;;;;;28.90;2.27;;;17.90;23.10;;;;;;5989317;24;20420;-84
2021/05/09 09:32:48;;;;;;;51.67;9.57;;;23.80;1.00;;;;;;6141268;23;20448;-86
2021/05/09 11:26:23;;;;;;;59.97;13.30;;;27.20;1.00;;;;;;6177098;23;20888;-85
2021/05/09 12:42:58;;;;;;;62.20;8.77;;;29.90;1.00;;;;;;6156750;23;20515;-79
2021/05/09 12:45:39;;;;;;;73.60;31.87;;;30.00;1.00;;;;;;6155630;23;20398;-81
2021/05/09 15:16:06;;;;;;;64.30;4.30;;;29.80;1.00;;;;;;6162113;23;20454;31
2021/05/09 15:18:32;;;;;;;62.17;3.27;;;29.80;1.00;;;;;;6125586;23;20454;-85
2021/05/09 15:20:59;;;;;;;62.50;3.53;;;29.90;1.00;;;;;;6136282;23;21130;-82
2021/05/09 15:23:26;;;;;;;62.90;6.13;;;29.70;1.00;;;;;;6127046;23;20407;-85
2021/05/09 15:25:54;;;;;;;64.07;4.00;;;29.50;1.00;;;;;;6126214;23;20426;-81
2021/05/09 15:28:21;;;;;;;61.90;3.30;;;29.40;1.00;;;;;;6136079;23;20389;-81
2021/05/09 15:30:47;;;;;;;72.30;16.77;;;29.20;1.00;;;;;;6126901;23;20718;-87
2021/05/09 15:33:14;;;;;;;63.40;7.60;;;29.00;1.00;;;;;;6134618;23;20880;-87
2021/05/09 15:35:44;;;;;;;73.70;34.63;;;28.90;1.00;;;;;;6136594;23;20382;-85
2021/05/09 15:38:10;;;;;;;65.10;13.37;;;28.70;1.00;;;;;;6135979;23;20726;-89
2021/05/09 15:40:37;;;;;;;79.57;42.43;;;28.40;1.00;;;;;;6126498;23;20434;-87
2021/05/09 15:43:03;;;;;;;61.43;5.77;;;28.30;1.00;;;;;;6136386;23;20416;-83
2021/05/09 15:45:30;;;;;;;75.53;35.77;;;28.50;1.00;;;;;;6126281;23;20900;-84
2021/05/09 15:47:57;;;;;;;63.37;10.20;;;28.40;1.00;;;;;;6125158;23;20381;-85
2021/05/09 15:50:25;;;;;;;62.90;8.13;;;28.40;1.00;;;;;;6126432;23;20384;-83
2021/05/09 15:52:51;;;;;;;68.23;11.67;;;28.10;1.00;;;;;;6136014;23;20480;-83
2021/05/09 15:55:18;;;;;;;63.10;11.43;;;27.90;1.00;;;;;;6125746;23;20489;-86
2021/05/09 15:57:44;;;;;;;90.07;67.63;;;27.70;1.00;;;;;;6125951;23;20486;-85
2021/05/09 16:00:12;;;;;;;71.37;15.50;;;27.50;1.00;;;;;;6127207;23;20497;-94
2021/05/09 16:02:38;;;;;;;61.90;7.17;;;27.60;1.00;;;;;;6134648;23;20443;-84
2021/05/09 16:05:05;;;;;;;63.07;11.17;;;27.30;1.00;;;;;;6126016;23;20455;-90
2021/05/09 16:07:32;;;;;;;90.82;70.55;;;27.40;1.00;;;;;;6134631;23;20444;-80
2021/05/09 16:09:59;;;;;;;82.77;52.57;;;27.50;1.00;;;;;;6122181;23;20510;-81
2021/05/09 16:12:31;;;;;;;74.20;41.13;;;27.40;1.00;;;;;;6123962;23;20877;-83
2021/05/09 16:15:14;;;;;;;;;;;;;;;;;;;;;
2021/05/09 16:21:51;;;;;;;;;;;;;;;;;;;;;
2021/05/09 16:25:08;;;;;;;;;;;;;;;;;;;;;
